Time;durP1;ratioP1;P1;durP2;ratioP2;P2;SDS_P1;SDS_P2;PMS_P1;PMS_P2;Temp;Humidity;BMP_temperature;BMP_pressure;BME280_temperature;BME280_humidity;BME280_pressure;Samples;Min_cycle;Max_cycle;Signal;HPM_P1;HPM_P2
2022/10/24 00:02:22;;;;;;;5.17;1.20;;;16.10;79.20;;;;;;4955384;28;20509;-83
2022/10/24 00:04:49;;;;;;;4.07;0.90;;;16.10;79.20;;;;;;4987601;28;20255;-83
2022/10/24 00:07:16;;;;;;;5.63;1.00;;;16.10;79.30;;;;;;4971607;28;20055;-83
2022/10/24 00:09:44;;;;;;;5.95;1.13;;;16.10;79.40;;;;;;4970228;28;20123;-84
2022/10/24 00:12:11;;;;;;;6.07;1.05;;;16.10;79.30;;;;;;4971273;28;20055;-83
2022/10/24 00:14:39;;;;;;;5.27;1.20;;;16.10;79.40;;;;;;4987519;28;20138;-83
2022/10/24 00:17:07;;;;;;;5.78;1.20;;;16.10;79.50;;;;;;4955160;28;20307;-84
2022/10/24 00:19:35;;;;;;;5.05;0.80;;;16.10;79.60;;;;;;4987061;28;20521;-83
2022/10/24 00:22:03;;;;;;;5.00;1.27;;;16.10;79.60;;;;;;4987353;28;20542;-84
2022/10/24 00:24:30;;;;;;;5.40;1.02;;;16.10;79.60;;;;;;4971437;28;20149;-83
2022/10/24 00:27:53;;;;;;;5.63;0.90;;;16.10;79.70;;;;;;4988384;28;20081;-84
2022/10/24 00:30:20;;;;;;;6.03;1.15;;;16.10;79.70;;;;;;4970932;28;20262;-84
2022/10/24 00:32:47;;;;;;;6.55;0.90;;;16.00;79.70;;;;;;4970705;28;20058;-83
2022/10/24 00:35:16;;;;;;;5.03;0.90;;;16.10;79.70;;;;;;4986782;28;20138;-84
2022/10/24 00:37:43;;;;;;;4.95;0.80;;;16.00;79.70;;;;;;4987039;28;20158;-84
2022/10/24 00:40:14;;;;;;;4.00;1.00;;;16.00;79.80;;;;;;4970149;28;20153;-84
2022/10/24 00:42:45;;;;;;;3.83;0.75;;;16.00;79.90;;;;;;4954481;28;20378;-85
2022/10/24 00:45:46;;;;;;;5.15;0.85;;;16.00;79.90;;;;;;4952895;28;20059;-83
2022/10/24 00:48:21;;;;;;;3.55;0.70;;;16.00;80.00;;;;;;4985252;28;20138;-84
2022/10/24 00:50:53;;;;;;;4.63;0.90;;;16.00;80.00;;;;;;4969328;28;20116;-84
2022/10/24 00:53:22;;;;;;;5.30;1.20;;;16.00;80.00;;;;;;4969940;28;20051;-84
2022/10/24 00:55:52;;;;;;;3.47;0.90;;;16.00;80.10;;;;;;4985121;28;20247;-84
2022/10/24 00:58:22;;;;;;;5.25;1.10;;;16.00;80.10;;;;;;4952687;28;20146;-84
2022/10/24 01:00:49;;;;;;;4.95;1.10;;;16.00;80.20;;;;;;4985641;28;20083;-84
2022/10/24 01:03:16;;;;;;;6.53;1.35;;;16.00;80.30;;;;;;4970446;28;20564;-84
2022/10/24 01:05:59;;;;;;;5.27;1.27;;;16.00;80.40;;;;;;4970865;28;20581;-83
2022/10/24 01:08:38;;;;;;;6.68;1.52;;;16.00;80.50;;;;;;4963518;28;20288;-84
2022/10/24 01:11:17;;;;;;;3.85;1.30;;;16.00;80.70;;;;;;4951206;28;20139;-84
2022/10/24 01:13:56;;;;;;;5.30;1.40;;;16.00;80.80;;;;;;4934617;28;20146;-84
2022/10/24 01:16:29;;;;;;;3.72;1.25;;;16.00;80.90;;;;;;4951573;28;20055;-83
2022/10/24 01:19:07;;;;;;;4.30;1.47;;;16.00;81.20;;;;;;4963919;28;20051;-84
2022/10/24 01:21:37;;;;;;;4.22;1.27;;;16.00;81.20;;;;;;4986703;28;20300;-83
2022/10/24 01:24:28;;;;;;;6.38;1.95;;;16.00;81.40;;;;;;4970572;28;20492;-83
2022/10/24 01:27:14;;;;;;;7.97;1.60;;;16.00;81.30;;;;;;4955197;28;20590;-84
2022/10/24 01:29:59;;;;;;;6.38;1.65;;;16.00;81.50;;;;;;4970220;28;20502;-84
2022/10/24 01:32:37;;;;;;;4.50;1.50;;;16.00;81.50;;;;;;4954004;28;20090;-84
2022/10/24 01:35:15;;;;;;;5.65;1.50;;;16.00;81.50;;;;;;4969180;28;20393;-84
2022/10/24 01:37:47;;;;;;;6.65;1.80;;;16.00;81.60;;;;;;4954027;28;20065;-83
2022/10/24 01:40:20;;;;;;;7.15;1.58;;;16.00;81.50;;;;;;4986595;28;20166;-83
2022/10/24 01:42:50;;;;;;;7.18;1.52;;;16.00;81.50;;;;;;4966633;28;20119;-83
2022/10/24 01:45:28;;;;;;;5.80;1.20;;;16.00;81.50;;;;;;4948357;28;20138;-83
2022/10/24 01:47:58;;;;;;;5.22;1.40;;;16.00;81.50;;;;;;4954021;28;20298;-83
2022/10/24 01:50:27;;;;;;;6.70;1.63;;;16.00;81.50;;;;;;4953978;28;20569;-83
2022/10/24 01:52:57;;;;;;;8.25;1.90;;;16.00;81.50;;;;;;4958644;28;20055;-83
2022/10/24 01:55:24;;;;;;;7.95;1.60;;;16.00;81.40;;;;;;4986717;28;20051;-83
2022/10/24 01:57:51;;;;;;;6.17;1.47;;;16.00;81.50;;;;;;4953910;28;20055;-83
2022/10/24 02:00:22;;;;;;;5.30;1.52;;;16.00;81.40;;;;;;4953921;28;20814;-84
2022/10/24 02:02:54;;;;;;;5.68;1.25;;;16.00;81.20;;;;;;4961062;28;20055;-84
2022/10/24 02:05:24;;;;;;;5.82;1.23;;;16.00;81.20;;;;;;4950615;28;20143;-83
2022/10/24 02:07:54;;;;;;;5.53;1.30;;;16.00;81.10;;;;;;4959587;28;20047;-84
2022/10/24 02:10:26;;;;;;;4.13;1.27;;;16.00;81.20;;;;;;4988286;28;20122;-83
2022/10/24 02:12:58;;;;;;;9.38;1.70;;;16.00;81.10;;;;;;4986197;28;20290;-84
2022/10/24 02:15:31;;;;;;;6.30;1.27;;;16.00;80.90;;;;;;4970249;28;20131;-84
2022/10/24 02:17:59;;;;;;;6.13;1.60;;;16.00;80.70;;;;;;4946572;28;20833;-83
2022/10/24 02:20:30;;;;;;;6.97;1.50;;;16.00;80.70;;;;;;4956485;28;20057;-83
2022/10/24 02:23:03;;;;;;;7.13;1.70;;;16.00;80.70;;;;;;4956788;28;20504;-83
2022/10/24 02:25:35;;;;;;;6.13;1.40;;;16.00;80.60;;;;;;4989528;28;20271;-83
2022/10/24 02:28:07;;;;;;;4.22;1.50;;;16.00;80.60;;;;;;4988457;28;20043;-84
2022/10/24 02:30:40;;;;;;;7.18;1.67;;;16.00;80.60;;;;;;4989228;28;20605;-83
2022/10/24 02:33:09;;;;;;;6.22;1.55;;;16.00;80.60;;;;;;4956566;28;20058;-84
2022/10/24 02:35:39;;;;;;;8.37;1.70;;;16.00;80.50;;;;;;4973167;28;20147;-83
2022/10/24 02:38:11;;;;;;;5.47;1.50;;;15.90;80.40;;;;;;4972863;28;20266;-84
2022/10/24 02:41:09;;;;;;;5.72;1.52;;;15.90;80.40;;;;;;4957682;28;20070;-84
2022/10/24 02:43:38;;;;;;;6.35;1.60;;;15.90;80.20;;;;;;4987750;28;20052;-83
2022/10/24 02:46:08;;;;;;;7.15;1.40;;;15.90;80.00;;;;;;4989106;28;20130;-83
2022/10/24 02:48:40;;;;;;;7.00;1.77;;;15.90;79.70;;;;;;4972874;28;20133;-83
2022/10/24 02:51:07;;;;;;;5.30;1.40;;;15.90;79.80;;;;;;4972453;28;20685;-83
2022/10/24 02:53:37;;;;;;;7.07;1.50;;;15.90;79.70;;;;;;4989056;28;20058;-84
2022/10/24 02:56:04;;;;;;;6.53;1.75;;;15.90;79.70;;;;;;4972874;28;20144;-84
2022/10/24 02:58:31;;;;;;;6.30;1.63;;;15.90;79.40;;;;;;4956407;28;20055;-83
2022/10/24 03:00:58;;;;;;;8.30;1.70;;;15.90;79.10;;;;;;4971501;28;20212;-83
2022/10/24 03:03:27;;;;;;;7.20;1.60;;;15.90;79.20;;;;;;4972482;28;21367;-84
2022/10/24 03:05:54;;;;;;;5.00;1.38;;;15.90;79.00;;;;;;4989066;28;20055;-84
2022/10/24 03:08:21;;;;;;;7.28;1.50;;;15.90;79.00;;;;;;4988743;28;20059;-84
2022/10/24 03:10:48;;;;;;;4.72;1.60;;;16.00;78.60;;;;;;4969734;28;20059;-83
2022/10/24 03:13:15;;;;;;;7.40;1.70;;;15.90;78.40;;;;;;4937055;28;20505;-84
2022/10/24 03:15:42;;;;;;;6.10;2.00;;;16.00;78.50;;;;;;4968955;28;20777;-84
2022/10/24 03:18:09;;;;;;;5.25;1.80;;;15.90;78.60;;;;;;4936418;28;20051;-83
2022/10/24 03:20:38;;;;;;;6.05;1.70;;;15.90;78.60;;;;;;4967944;28;20414;-83
2022/10/24 03:23:05;;;;;;;6.90;1.63;;;15.90;78.40;;;;;;4969213;28;20518;-84
2022/10/24 03:25:32;;;;;;;7.93;2.00;;;15.90;78.60;;;;;;4968786;28;20435;-83
2022/10/24 03:27:59;;;;;;;8.93;1.70;;;15.90;78.20;;;;;;4955139;28;20260;-83
2022/10/24 03:30:26;;;;;;;7.90;1.70;;;15.90;78.30;;;;;;4955694;28;20147;-83
2022/10/24 03:32:53;;;;;;;10.68;1.80;;;15.80;78.30;;;;;;4955901;28;20058;-84
2022/10/24 03:35:21;;;;;;;5.53;1.70;;;15.80;78.40;;;;;;4954632;28;20060;-84
2022/10/24 03:37:49;;;;;;;7.73;1.67;;;15.80;78.30;;;;;;4971792;28;20053;-83
2022/10/24 03:40:17;;;;;;;6.53;1.90;;;15.80;78.20;;;;;;4955551;28;20279;-84
2022/10/24 03:42:44;;;;;;;6.38;1.83;;;15.80;78.10;;;;;;4955807;28;20043;-83
2022/10/24 03:45:11;;;;;;;8.30;1.75;;;15.80;78.20;;;;;;4959028;28;20060;-83
2022/10/24 03:47:38;;;;;;;8.02;1.90;;;15.80;78.20;;;;;;4952265;28;20060;-83
2022/10/24 03:50:07;;;;;;;5.47;1.70;;;15.80;78.20;;;;;;4969211;28;20146;-84
2022/10/24 03:52:34;;;;;;;5.10;2.00;;;15.80;77.80;;;;;;4970485;28;20256;-83
2022/10/24 03:55:02;;;;;;;7.55;1.88;;;15.80;77.70;;;;;;4987870;28;20051;-84
2022/10/24 03:57:29;;;;;;;6.50;2.17;;;15.80;77.70;;;;;;4987110;28;20054;-84
2022/10/24 03:59:56;;;;;;;7.70;2.15;;;15.80;77.30;;;;;;4952332;28;20078;-82
2022/10/24 04:02:23;;;;;;;8.30;1.97;;;15.80;77.30;;;;;;4940172;28;20047;-84
2022/10/24 04:04:50;;;;;;;7.82;2.00;;;15.80;77.10;;;;;;4968417;28;20375;-84
2022/10/24 04:07:17;;;;;;;8.57;2.00;;;15.80;77.20;;;;;;4968233;28;20062;-84
2022/10/24 04:09:45;;;;;;;6.60;1.75;;;15.80;76.90;;;;;;4970074;28;20111;-83
2022/10/24 04:12:13;;;;;;;5.10;1.63;;;15.80;76.70;;;;;;4971050;28;20512;-84
2022/10/24 04:14:40;;;;;;;7.10;1.70;;;15.80;76.50;;;;;;4987727;28;20090;-84
2022/10/24 04:17:07;;;;;;;8.82;2.00;;;15.80;76.60;;;;;;4987388;28;20248;-83
2022/10/24 04:19:34;;;;;;;7.90;1.80;;;15.80;76.50;;;;;;4977172;28;20052;-83
2022/10/24 04:22:01;;;;;;;5.05;1.60;;;15.80;76.30;;;;;;4967967;28;20054;-83
2022/10/24 04:24:29;;;;;;;7.25;2.00;;;15.80;76.10;;;;;;4968047;28;20047;-83
2022/10/24 04:26:56;;;;;;;6.73;1.80;;;15.80;76.20;;;;;;4968346;28;20539;-83
2022/10/24 04:29:24;;;;;;;5.88;1.60;;;15.80;76.20;;;;;;4952458;28;20278;-83
2022/10/24 04:31:51;;;;;;;5.57;1.70;;;15.80;76.20;;;;;;4951739;28;20052;-84
2022/10/24 04:34:18;;;;;;;6.85;1.60;;;15.80;76.10;;;;;;4951812;28;20061;-84
2022/10/24 04:36:45;;;;;;;5.40;1.70;;;15.80;76.10;;;;;;4954858;28;20527;-84
2022/10/24 04:39:12;;;;;;;7.70;2.03;;;15.80;75.90;;;;;;4954782;28;20162;-83
2022/10/24 04:41:39;;;;;;;5.90;1.52;;;15.80;75.80;;;;;;4987373;28;20267;-83
2022/10/24 04:44:07;;;;;;;7.80;1.90;;;15.80;75.70;;;;;;4970524;28;20055;-83
2022/10/24 04:46:35;;;;;;;7.78;1.77;;;15.80;75.70;;;;;;4970120;28;20054;-82
2022/10/24 04:49:02;;;;;;;7.10;1.60;;;15.80;75.50;;;;;;4986855;28;20142;-83
2022/10/24 04:51:29;;;;;;;7.90;1.90;;;15.80;75.30;;;;;;4987193;28;20082;-83
2022/10/24 04:53:56;;;;;;;5.25;1.65;;;15.80;75.20;;;;;;4956886;28;20291;-83
2022/10/24 04:56:24;;;;;;;5.95;1.80;;;15.80;75.10;;;;;;4967797;28;20485;-83
2022/10/24 04:58:51;;;;;;;5.95;1.80;;;15.80;75.00;;;;;;4951387;28;20077;-84
2022/10/24 05:01:18;;;;;;;7.43;1.70;;;15.80;75.10;;;;;;4935235;28;20056;-82
2022/10/24 05:03:47;;;;;;;7.67;1.60;;;15.80;74.80;;;;;;4969557;28;20134;-83
2022/10/24 05:06:14;;;;;;;5.53;1.63;;;15.80;74.50;;;;;;4970344;28;21143;-83
2022/10/24 05:08:41;;;;;;;6.07;1.40;;;15.80;74.40;;;;;;4973023;28;20059;-83
2022/10/24 05:11:10;;;;;;;7.03;1.65;;;15.80;74.40;;;;;;4986626;28;20119;-83
2022/10/24 05:13:38;;;;;;;7.63;1.48;;;15.70;74.40;;;;;;4953926;28;20055;-83
2022/10/24 05:16:05;;;;;;;4.40;1.30;;;15.70;74.50;;;;;;4970466;28;20065;-83
2022/10/24 05:18:32;;;;;;;6.07;1.67;;;15.70;74.50;;;;;;4954137;28;20255;-84
2022/10/24 05:21:01;;;;;;;5.90;1.70;;;15.60;74.50;;;;;;4985784;28;20515;-83
2022/10/24 05:23:28;;;;;;;6.47;1.10;;;15.60;74.30;;;;;;4986767;28;20063;-83
2022/10/24 05:25:55;;;;;;;6.45;1.35;;;15.60;74.20;;;;;;4970472;28;20094;-82
2022/10/24 05:28:23;;;;;;;5.63;1.30;;;15.60;74.10;;;;;;4973140;28;20167;-83
2022/10/24 05:30:50;;;;;;;5.75;1.20;;;15.60;74.10;;;;;;4951222;28;20348;-83
2022/10/24 05:33:18;;;;;;;6.07;1.23;;;15.60;74.20;;;;;;4980935;28;20047;-83
2022/10/24 05:35:45;;;;;;;5.78;1.40;;;15.60;74.20;;;;;;4953951;28;20130;-83
2022/10/24 05:38:14;;;;;;;5.13;1.30;;;15.60;74.10;;;;;;4987793;28;20517;-83
2022/10/24 05:40:41;;;;;;;6.00;1.20;;;15.60;73.90;;;;;;4969420;28;20054;-82
2022/10/24 05:43:08;;;;;;;5.70;1.48;;;15.60;73.90;;;;;;4985338;28;20286;-83
2022/10/24 05:45:35;;;;;;;5.00;1.17;;;15.60;74.00;;;;;;4963307;28;20066;-83
2022/10/24 05:48:03;;;;;;;6.40;1.40;;;15.50;74.10;;;;;;4991961;28;20051;-83
2022/10/24 05:50:30;;;;;;;8.35;1.48;;;15.50;74.20;;;;;;4992133;28;20051;-83
2022/10/24 05:52:57;;;;;;;6.17;1.43;;;15.50;74.00;;;;;;4975781;28;20058;-83
2022/10/24 05:55:26;;;;;;;4.50;1.17;;;15.50;74.10;;;;;;4991758;28;20707;-83
2022/10/24 05:57:53;;;;;;;4.72;1.00;;;15.50;74.20;;;;;;4976327;28;20063;-83
2022/10/24 06:00:20;;;;;;;4.93;1.15;;;15.50;74.20;;;;;;4960151;28;20058;-83
2022/10/24 06:02:47;;;;;;;6.30;1.30;;;15.50;74.30;;;;;;4956282;28;20146;-83
2022/10/24 06:05:15;;;;;;;5.33;1.20;;;15.50;74.40;;;;;;4968671;28;20142;-82
2022/10/24 06:07:42;;;;;;;6.53;1.45;;;15.50;74.30;;;;;;4969403;28;20270;-82
2022/10/24 06:10:11;;;;;;;5.63;1.00;;;15.50;74.20;;;;;;4973263;28;20152;-82
2022/10/24 06:12:39;;;;;;;9.30;1.33;;;15.50;74.30;;;;;;4973434;28;20061;-82
2022/10/24 06:15:08;;;;;;;3.72;1.10;;;15.50;74.20;;;;;;4973916;28;20055;-85
2022/10/24 06:17:36;;;;;;;4.53;1.03;;;15.50;74.20;;;;;;4989771;28;20063;-83
2022/10/24 06:20:04;;;;;;;6.18;1.13;;;15.50;74.10;;;;;;4990089;28;20283;-84
2022/10/24 06:22:31;;;;;;;6.05;1.25;;;15.50;74.10;;;;;;4989938;28;20104;-83
2022/10/24 06:24:58;;;;;;;4.95;1.27;;;15.50;74.00;;;;;;4992113;28;20953;-82
2022/10/24 06:27:26;;;;;;;8.13;1.27;;;15.60;74.00;;;;;;4990762;28;20363;-82
2022/10/24 06:29:54;;;;;;;7.23;1.20;;;15.60;74.10;;;;;;4991636;28;20122;-82
2022/10/24 06:32:22;;;;;;;5.03;1.15;;;15.60;74.10;;;;;;4991322;28;20290;-83
2022/10/24 06:34:50;;;;;;;5.45;1.15;;;15.60;74.30;;;;;;4974164;28;20085;-83
2022/10/24 06:37:17;;;;;;;5.72;0.82;;;15.60;74.30;;;;;;4957929;28;20596;-82
2022/10/24 06:39:44;;;;;;;4.85;1.05;;;15.60;74.10;;;;;;4989945;28;20078;-81
2022/10/24 06:42:11;;;;;;;4.57;1.17;;;15.60;74.30;;;;;;4989904;28;20051;-81
2022/10/24 06:44:39;;;;;;;7.20;1.35;;;15.60;74.00;;;;;;4957511;28;20271;-81
2022/10/24 06:47:07;;;;;;;4.90;0.95;;;15.60;74.20;;;;;;4971428;28;20056;-82
2022/10/24 06:49:34;;;;;;;5.63;1.15;;;15.60;74.00;;;;;;4987174;28;20046;-81
2022/10/24 06:52:01;;;;;;;4.85;1.00;;;15.60;74.20;;;;;;4991710;28;20074;-82
2022/10/24 06:54:28;;;;;;;3.83;1.03;;;15.60;74.20;;;;;;4973188;28;20055;-81
2022/10/24 06:56:56;;;;;;;5.25;1.23;;;15.60;74.10;;;;;;4988226;28;20761;-81
2022/10/24 06:59:23;;;;;;;4.38;1.00;;;15.60;73.90;;;;;;4955971;28;20130;-81
2022/10/24 07:01:50;;;;;;;8.18;1.35;;;15.60;73.90;;;;;;4971987;28;20052;-82
2022/10/24 07:04:18;;;;;;;5.07;1.00;;;15.60;74.00;;;;;;4955248;28;20067;-82
2022/10/24 07:06:45;;;;;;;5.20;1.30;;;15.60;74.00;;;;;;4988454;28;20055;-82
2022/10/24 07:09:13;;;;;;;6.88;1.23;;;15.60;74.10;;;;;;4972052;28;20264;-81
2022/10/24 07:11:40;;;;;;;6.45;1.15;;;15.60;74.10;;;;;;4965487;28;20065;-82
2022/10/24 07:14:08;;;;;;;4.53;0.80;;;15.60;74.10;;;;;;4988491;28;20051;-82
2022/10/24 07:16:36;;;;;;;6.00;1.10;;;15.60;74.20;;;;;;4974521;28;20115;-83
2022/10/24 07:19:04;;;;;;;4.63;1.10;;;15.60;74.20;;;;;;4952541;28;20048;-84
2022/10/24 07:21:33;;;;;;;5.40;1.30;;;15.60;74.30;;;;;;4987942;28;20698;-82
2022/10/24 07:24:03;;;;;;;5.53;1.00;;;15.70;74.20;;;;;;4972211;28;20063;-81
2022/10/24 07:26:30;;;;;;;6.35;1.25;;;15.70;73.90;;;;;;4988286;28;20051;-82
2022/10/24 07:29:00;;;;;;;7.03;1.20;;;15.80;73.90;;;;;;4955584;28;20054;-81
2022/10/24 07:31:30;;;;;;;4.97;1.10;;;15.80;73.80;;;;;;4972222;28;20051;-81
2022/10/24 07:33:58;;;;;;;6.50;1.30;;;15.80;73.70;;;;;;4972826;28;20255;-82
2022/10/24 07:36:29;;;;;;;4.97;1.10;;;15.80;73.60;;;;;;4954882;28;20051;-82
2022/10/24 07:38:58;;;;;;;5.45;1.15;;;15.80;73.60;;;;;;4967698;28;20054;-82
2022/10/24 07:41:28;;;;;;;7.10;1.20;;;15.80;73.80;;;;;;4952137;28;21134;-83
2022/10/24 07:43:56;;;;;;;7.00;1.20;;;15.80;73.80;;;;;;4935409;28;20573;-82
2022/10/24 07:46:24;;;;;;;6.68;1.02;;;15.80;73.70;;;;;;4981954;28;21115;-82
2022/10/24 07:48:52;;;;;;;6.32;1.20;;;15.80;73.70;;;;;;4971024;28;21068;-85
2022/10/24 07:51:20;;;;;;;6.10;1.20;;;15.80;73.60;;;;;;4937434;28;20052;-82
2022/10/24 07:53:47;;;;;;;7.25;1.50;;;15.80;73.70;;;;;;4953098;28;20142;-81
2022/10/24 07:56:17;;;;;;;5.03;0.90;;;15.80;73.70;;;;;;4972464;28;20066;-79
2022/10/24 07:58:46;;;;;;;7.10;1.42;;;15.80;73.80;;;;;;4971248;28;20264;-80
2022/10/24 08:01:16;;;;;;;5.05;0.82;;;15.90;73.90;;;;;;4983017;28;20437;-80
2022/10/24 08:03:43;;;;;;;8.05;1.10;;;15.90;73.90;;;;;;4970673;28;20498;-80
2022/10/24 08:06:12;;;;;;;5.70;1.08;;;15.90;74.00;;;;;;4984580;28;20119;-80
2022/10/24 08:08:40;;;;;;;7.63;1.20;;;15.90;73.90;;;;;;4969698;28;20051;-81
2022/10/24 08:11:07;;;;;;;9.77;1.23;;;16.00;73.70;;;;;;4968163;28;20271;-80
2022/10/24 08:13:36;;;;;;;6.60;1.20;;;16.00;73.50;;;;;;4969249;28;20053;-81
2022/10/24 08:16:05;;;;;;;6.15;1.10;;;16.00;73.40;;;;;;4987355;28;20113;-81
2022/10/24 08:18:33;;;;;;;9.02;1.25;;;16.00;73.40;;;;;;4986893;28;20055;-81
2022/10/24 08:21:01;;;;;;;5.77;0.90;;;16.00;73.50;;;;;;4954642;28;20066;-81
2022/10/24 08:23:29;;;;;;;8.07;1.17;;;16.10;73.40;;;;;;4987075;28;20916;-80
2022/10/24 08:25:56;;;;;;;6.45;1.02;;;16.10;73.20;;;;;;4955210;28;20147;-80
2022/10/24 08:28:24;;;;;;;6.30;1.00;;;16.10;73.20;;;;;;4968270;28;20055;-81
2022/10/24 08:31:00;;;;;;;6.78;1.10;;;16.20;73.20;;;;;;4953058;28;20059;-82
2022/10/24 08:33:27;;;;;;;5.03;0.97;;;16.20;72.60;;;;;;4970003;28;20058;-81
2022/10/24 08:35:57;;;;;;;7.60;1.15;;;16.30;72.50;;;;;;4954490;28;20695;-82
2022/10/24 08:38:25;;;;;;;7.60;1.25;;;16.40;72.40;;;;;;4953256;28;20082;-83
2022/10/24 08:40:53;;;;;;;6.93;1.13;;;16.40;72.40;;;;;;4987104;28;20509;-81
2022/10/24 08:43:20;;;;;;;7.20;1.08;;;16.40;71.90;;;;;;4986199;28;20062;-80
2022/10/24 08:45:58;;;;;;;6.87;1.23;;;16.50;71.90;;;;;;4958953;28;20051;-82
2022/10/24 08:48:31;;;;;;;7.03;1.80;;;16.50;72.10;;;;;;4970803;28;20331;-82
2022/10/24 08:51:08;;;;;;;6.65;1.27;;;16.50;72.00;;;;;;4970289;28;20053;-81
2022/10/24 08:53:36;;;;;;;5.90;1.20;;;16.50;72.30;;;;;;4989499;28;20059;-81
2022/10/24 08:56:05;;;;;;;5.95;1.10;;;16.60;71.80;;;;;;4970468;28;20043;-82
2022/10/24 08:58:36;;;;;;;8.53;1.20;;;16.60;71.60;;;;;;4970521;28;20481;-81
2022/10/24 09:01:07;;;;;;;5.93;1.02;;;16.70;71.40;;;;;;4969945;28;20289;-79
2022/10/24 09:03:40;;;;;;;7.05;1.20;;;16.70;71.10;;;;;;4958206;28;20062;-81
2022/10/24 09:06:12;;;;;;;7.65;1.10;;;16.70;71.00;;;;;;4982673;28;20059;-83
2022/10/24 09:08:47;;;;;;;7.82;1.30;;;16.80;71.00;;;;;;4968184;28;20130;-82
2022/10/24 09:11:22;;;;;;;6.77;1.13;;;16.80;71.00;;;;;;4987066;28;20110;-82
2022/10/24 09:13:50;;;;;;;6.03;0.90;;;16.80;71.00;;;;;;4984407;28;21222;-83
2022/10/24 09:16:21;;;;;;;6.05;1.02;;;16.80;70.90;;;;;;4954349;28;20146;-83
2022/10/24 09:18:52;;;;;;;5.72;1.20;;;16.80;71.00;;;;;;4985121;28;20645;-84
2022/10/24 09:21:21;;;;;;;10.35;1.20;;;16.80;70.70;;;;;;4968578;28;20054;-85
2022/10/24 09:23:50;;;;;;;5.87;1.13;;;16.80;70.80;;;;;;4970275;28;20082;-83
2022/10/24 09:26:24;;;;;;;6.25;1.10;;;16.80;71.00;;;;;;4954479;28;20311;-83
2022/10/24 09:28:51;;;;;;;5.63;1.00;;;16.80;71.10;;;;;;4984230;28;20138;-83
2022/10/24 09:31:20;;;;;;;6.32;2.03;;;16.90;70.80;;;;;;4969184;28;20508;-83
2022/10/24 09:33:51;;;;;;;6.55;1.10;;;16.90;71.00;;;;;;4969413;28;20099;-82
2022/10/24 09:36:21;;;;;;;6.10;0.80;;;16.80;71.10;;;;;;4986683;28;20058;-82
2022/10/24 09:38:48;;;;;;;9.20;1.15;;;16.80;71.20;;;;;;4984281;28;20276;-83
2022/10/24 09:41:20;;;;;;;8.45;1.10;;;16.80;71.40;;;;;;4969571;28;20110;-81
2022/10/24 09:43:52;;;;;;;6.20;1.20;;;16.80;71.20;;;;;;4968168;28;20079;-81
2022/10/24 09:46:21;;;;;;;5.20;0.82;;;16.80;70.80;;;;;;4970762;28;20158;-84
2022/10/24 09:48:55;;;;;;;6.07;1.20;;;16.90;70.50;;;;;;4953378;28;20052;-85
2022/10/24 09:51:27;;;;;;;4.70;1.00;;;16.90;70.70;;;;;;4968573;28;20275;-81
2022/10/24 09:54:05;;;;;;;4.55;0.90;;;16.90;70.20;;;;;;4969685;28;20051;-83
2022/10/24 09:56:41;;;;;;;7.97;1.00;;;16.90;70.70;;;;;;4968770;28;20051;-83
2022/10/24 09:59:43;;;;;;;7.43;1.00;;;17.00;70.30;;;;;;4970771;28;20052;-81
2022/10/24 10:02:26;;;;;;;7.57;1.00;;;17.00;70.50;;;;;;4968044;28;20059;-82
2022/10/24 10:05:29;;;;;;;6.50;1.02;;;17.00;70.30;;;;;;4983653;28;20254;-82
2022/10/24 10:07:57;;;;;;;6.40;1.10;;;17.00;70.70;;;;;;4913774;29;20051;-84
2022/10/24 10:10:30;;;;;;;8.43;1.13;;;17.10;70.40;;;;;;4913406;29;20911;-84
2022/10/24 10:13:05;;;;;;;7.18;1.20;;;17.10;70.00;;;;;;4948489;28;20553;-84
2022/10/24 10:15:36;;;;;;;4.50;0.90;;;17.10;69.70;;;;;;4968076;28;20055;-84
2022/10/24 10:18:20;;;;;;;4.25;0.80;;;17.20;69.70;;;;;;4953148;28;20377;-83
2022/10/24 10:21:07;;;;;;;7.38;0.80;;;17.20;69.20;;;;;;4969053;28;20107;-83
2022/10/24 10:23:38;;;;;;;4.60;0.70;;;17.20;69.00;;;;;;4977696;28;20062;-78
2022/10/24 10:26:23;;;;;;;4.63;0.80;;;17.20;68.60;;;;;;4969263;28;20060;-81
2022/10/24 10:28:57;;;;;;;3.87;0.80;;;17.30;68.00;;;;;;4985462;28;20434;-80
2022/10/24 10:31:30;;;;;;;6.10;0.77;;;17.20;68.70;;;;;;4955844;28;20252;-81
2022/10/24 10:34:26;;;;;;;3.78;0.65;;;17.20;68.20;;;;;;4988756;28;20355;-82
2022/10/24 10:37:22;;;;;;;5.82;0.80;;;17.30;68.20;;;;;;4978926;28;20058;-80
2022/10/24 10:40:13;;;;;;;4.28;0.88;;;17.20;68.20;;;;;;4959297;28;20502;-83
2022/10/24 10:42:51;;;;;;;5.03;0.70;;;17.30;68.60;;;;;;4979698;28;20051;-80
2022/10/24 10:45:32;;;;;;;6.35;1.17;;;17.20;69.40;;;;;;4972143;28;20579;-81
2022/10/24 10:48:08;;;;;;;7.68;1.20;;;17.20;69.50;;;;;;4970595;28;20048;-81
2022/10/24 10:50:40;;;;;;;5.47;1.02;;;17.20;69.80;;;;;;4961704;28;20055;-81
2022/10/24 10:53:37;;;;;;;6.60;1.05;;;17.20;70.20;;;;;;4970398;28;20094;-81
2022/10/24 10:56:17;;;;;;;5.50;0.93;;;17.20;69.50;;;;;;4981769;28;20059;-81
2022/10/24 10:58:58;;;;;;;7.65;1.48;;;17.20;69.40;;;;;;4971999;28;20263;-80
2022/10/24 11:01:33;;;;;;;8.48;1.23;;;17.20;70.40;;;;;;4987537;28;21059;-81
2022/10/24 11:04:07;;;;;;;4.68;0.80;;;17.20;70.60;;;;;;4971372;28;20985;-81
2022/10/24 11:06:43;;;;;;;5.65;0.90;;;17.20;70.80;;;;;;4970353;28;20144;-81
2022/10/24 11:09:26;;;;;;;4.77;0.90;;;17.20;71.10;;;;;;4970726;28;20055;-81
2022/10/24 11:11:58;;;;;;;6.18;0.80;;;17.20;71.10;;;;;;4964406;28;21220;-80
2022/10/24 11:14:31;;;;;;;5.22;0.90;;;17.20;71.20;;;;;;4970019;28;20063;-81
2022/10/24 11:17:04;;;;;;;6.22;0.93;;;17.30;70.10;;;;;;4986599;28;20065;-81
2022/10/24 11:19:40;;;;;;;4.55;0.75;;;17.30;70.00;;;;;;4986468;28;20055;-77
2022/10/24 11:22:14;;;;;;;5.17;0.80;;;17.40;69.70;;;;;;4986938;28;20106;-82
2022/10/24 11:24:46;;;;;;;7.53;0.85;;;17.40;69.00;;;;;;4985929;28;20319;-81
2022/10/24 11:27:20;;;;;;;5.70;0.85;;;17.40;68.90;;;;;;4968789;28;20129;-80
2022/10/24 11:29:53;;;;;;;5.55;0.70;;;17.40;69.10;;;;;;4985951;28;20059;-80
2022/10/24 11:32:25;;;;;;;4.05;0.52;;;17.40;68.70;;;;;;4971739;28;20656;-80
2022/10/24 11:34:58;;;;;;;5.50;0.80;;;17.50;67.60;;;;;;4969893;28;20130;-80
2022/10/24 11:37:31;;;;;;;9.40;0.98;;;17.50;67.50;;;;;;4971120;28;20362;-79
2022/10/24 11:40:04;;;;;;;6.30;0.70;;;17.50;67.90;;;;;;4987083;28;20569;-81
2022/10/24 11:42:40;;;;;;;5.15;0.70;;;17.50;67.60;;;;;;4963624;28;20080;-81
2022/10/24 11:45:12;;;;;;;5.75;0.80;;;17.60;67.00;;;;;;4954338;28;20059;-83
2022/10/24 11:47:59;;;;;;;5.93;0.87;;;17.60;65.80;;;;;;4987374;28;20122;-81
2022/10/24 11:50:32;;;;;;;4.38;0.63;;;17.70;66.00;;;;;;4969723;28;20292;-80
2022/10/24 11:53:05;;;;;;;3.97;0.65;;;17.80;65.70;;;;;;4969607;28;20453;-79
2022/10/24 11:55:38;;;;;;;5.35;0.70;;;17.80;66.00;;;;;;4969149;28;20957;-82
2022/10/24 11:58:12;;;;;;;6.10;0.90;;;17.80;66.60;;;;;;4966156;28;20075;-82
2022/10/24 12:00:56;;;;;;;5.40;0.93;;;17.80;66.70;;;;;;4972656;28;20047;-80
2022/10/24 12:03:44;;;;;;;7.15;0.68;;;17.80;66.60;;;;;;4984699;28;20256;-80
2022/10/24 12:06:31;;;;;;;7.32;0.85;;;17.70;67.30;;;;;;4965067;28;20043;-80
2022/10/24 12:09:30;;;;;;;4.07;0.73;;;17.70;66.80;;;;;;4967071;28;20068;-84
2022/10/24 12:12:15;;;;;;;3.95;0.70;;;17.70;66.60;;;;;;4934173;28;20127;-83
2022/10/24 12:15:02;;;;;;;6.90;1.07;;;17.70;67.10;;;;;;4961874;28;20061;-81
2022/10/24 12:17:55;;;;;;;5.07;0.82;;;17.70;66.30;;;;;;4986315;28;20343;-81
2022/10/24 12:20:25;;;;;;;4.93;0.98;;;17.70;66.60;;;;;;4985503;28;20139;-80
2022/10/24 12:22:53;;;;;;;5.35;0.93;;;17.60;66.40;;;;;;4968902;28;20134;-79
2022/10/24 12:25:29;;;;;;;4.85;0.90;;;17.60;66.50;;;;;;4971113;28;20062;-79
2022/10/24 12:27:59;;;;;;;4.57;0.73;;;17.50;66.40;;;;;;4971017;28;20050;-80
2022/10/24 12:30:29;;;;;;;4.20;0.70;;;17.50;66.70;;;;;;4971889;28;20844;-77
2022/10/24 12:33:06;;;;;;;5.10;0.82;;;17.50;66.90;;;;;;4969935;28;20055;-77
2022/10/24 12:35:50;;;;;;;4.63;0.77;;;17.50;67.00;;;;;;4986866;28;20049;-78
2022/10/24 12:38:38;;;;;;;3.17;0.43;;;17.50;66.80;;;;;;4960909;28;20139;-77
2022/10/24 12:41:26;;;;;;;4.97;0.70;;;17.50;67.00;;;;;;4969005;28;20066;-76
2022/10/24 12:44:35;;;;;;;5.35;0.60;;;17.50;67.70;;;;;;4969447;28;20267;-76
2022/10/24 12:47:25;;;;;;;5.93;0.75;;;17.50;67.40;;;;;;4983562;28;20055;-76
2022/10/24 12:49:52;;;;;;;3.97;0.73;;;17.60;66.70;;;;;;4969235;28;20490;-76
2022/10/24 12:53:02;;;;;;;5.03;0.82;;;17.50;67.20;;;;;;4969903;28;20056;-77
2022/10/24 12:55:51;;;;;;;4.03;0.50;;;17.50;67.00;;;;;;4967208;28;20110;-77
2022/10/24 12:58:24;;;;;;;3.60;0.77;;;17.50;66.30;;;;;;4968938;28;20286;-77
2022/10/24 13:00:56;;;;;;;5.78;0.65;;;17.50;66.40;;;;;;4968764;28;20126;-78
2022/10/24 13:03:45;;;;;;;4.43;0.70;;;17.50;65.90;;;;;;4969051;28;20111;-77
2022/10/24 13:06:18;;;;;;;6.57;0.90;;;17.50;66.20;;;;;;4980659;28;20138;-77
2022/10/24 13:09:03;;;;;;;4.83;0.77;;;17.40;66.40;;;;;;4973267;28;20559;-77
2022/10/24 13:11:52;;;;;;;4.20;0.60;;;17.40;66.70;;;;;;4968909;28;20282;-78
2022/10/24 13:14:35;;;;;;;3.95;0.60;;;17.40;66.70;;;;;;4989508;28;20049;-76